sensor_id;sensor_type;location;lat;lon;timestamp;P1;durP1;ratioP1;P2;durP2;ratioP2
44987;SDS011;35735;52.226;21.254;2022-08-25T00:04:51;11.32;;;3.47;;
44987;SDS011;35735;52.226;21.254;2022-08-25T00:09:52;12.20;;;3.92;;
44987;SDS011;35735;52.226;21.254;2022-08-25T00:14:52;10.85;;;3.03;;
44987;SDS011;35735;52.226;21.254;2022-08-25T00:19:53;14.45;;;3.55;;
44987;SDS011;35735;52.226;21.254;2022-08-25T00:24:53;11.98;;;3.35;;
44987;SDS011;35735;52.226;21.254;2022-08-25T00:29:54;14.57;;;3.75;;
44987;SDS011;35735;52.226;21.254;2022-08-25T00:34:55;13.55;;;3.05;;
44987;SDS011;35735;52.226;21.254;2022-08-25T00:39:55;13.70;;;3.20;;
44987;SDS011;35735;52.226;21.254;2022-08-25T00:44:56;8.40;;;3.08;;
44987;SDS011;35735;52.226;21.254;2022-08-25T00:49:57;13.80;;;3.40;;
44987;SDS011;35735;52.226;21.254;2022-08-25T00:55:10;13.62;;;3.55;;
44987;SDS011;35735;52.226;21.254;2022-08-25T01:00:35;17.98;;;3.85;;
44987;SDS011;35735;52.226;21.254;2022-08-25T01:05:41;10.05;;;3.42;;
44987;SDS011;35735;52.226;21.254;2022-08-25T01:10:46;10.55;;;3.25;;
44987;SDS011;35735;52.226;21.254;2022-08-25T01:15:49;14.02;;;3.55;;
44987;SDS011;35735;52.226;21.254;2022-08-25T01:20:54;17.12;;;3.53;;
44987;SDS011;35735;52.226;21.254;2022-08-25T01:26:01;13.18;;;3.65;;
44987;SDS011;35735;52.226;21.254;2022-08-25T01:31:13;16.10;;;4.03;;
44987;SDS011;35735;52.226;21.254;2022-08-25T01:36:16;13.27;;;4.18;;
44987;SDS011;35735;52.226;21.254;2022-08-25T01:46:33;13.32;;;4.15;;
44987;SDS011;35735;52.226;21.254;2022-08-25T01:51:37;12.77;;;4.12;;
44987;SDS011;35735;52.226;21.254;2022-08-25T01:56:48;18.55;;;4.72;;
44987;SDS011;35735;52.226;21.254;2022-08-25T02:01:48;18.08;;;5.10;;
44987;SDS011;35735;52.226;21.254;2022-08-25T02:06:49;15.90;;;4.47;;
44987;SDS011;35735;52.226;21.254;2022-08-25T02:11:49;19.52;;;5.18;;
44987;SDS011;35735;52.226;21.254;2022-08-25T02:16:51;19.02;;;5.07;;
44987;SDS011;35735;52.226;21.254;2022-08-25T02:21:52;17.95;;;5.12;;
44987;SDS011;35735;52.226;21.254;2022-08-25T02:26:53;19.85;;;4.90;;
44987;SDS011;35735;52.226;21.254;2022-08-25T02:31:53;20.58;;;5.47;;
44987;SDS011;35735;52.226;21.254;2022-08-25T02:36:54;16.48;;;5.20;;
44987;SDS011;35735;52.226;21.254;2022-08-25T02:41:54;20.20;;;5.57;;
44987;SDS011;35735;52.226;21.254;2022-08-25T02:46:55;20.92;;;5.15;;
44987;SDS011;35735;52.226;21.254;2022-08-25T02:51:56;16.90;;;5.15;;
44987;SDS011;35735;52.226;21.254;2022-08-25T02:56:56;19.15;;;5.10;;
44987;SDS011;35735;52.226;21.254;2022-08-25T03:01:57;14.63;;;5.60;;
44987;SDS011;35735;52.226;21.254;2022-08-25T03:06:58;25.40;;;5.80;;
44987;SDS011;35735;52.226;21.254;2022-08-25T03:11:58;19.02;;;5.50;;
44987;SDS011;35735;52.226;21.254;2022-08-25T03:16:59;19.67;;;5.70;;
44987;SDS011;35735;52.226;21.254;2022-08-25T03:21:59;18.37;;;5.68;;
44987;SDS011;35735;52.226;21.254;2022-08-25T03:27:00;21.05;;;5.60;;
44987;SDS011;35735;52.226;21.254;2022-08-25T03:32:01;22.27;;;6.40;;
44987;SDS011;35735;52.226;21.254;2022-08-25T03:37:01;26.83;;;6.53;;
44987;SDS011;35735;52.226;21.254;2022-08-25T03:42:03;23.12;;;6.50;;
44987;SDS011;35735;52.226;21.254;2022-08-25T03:47:03;27.92;;;7.00;;
44987;SDS011;35735;52.226;21.254;2022-08-25T03:52:04;27.13;;;6.53;;
44987;SDS011;35735;52.226;21.254;2022-08-25T03:57:05;25.60;;;7.40;;
44987;SDS011;35735;52.226;21.254;2022-08-25T04:02:05;28.20;;;7.15;;
44987;SDS011;35735;52.226;21.254;2022-08-25T04:07:07;30.00;;;7.75;;
44987;SDS011;35735;52.226;21.254;2022-08-25T04:12:07;27.35;;;7.05;;
44987;SDS011;35735;52.226;21.254;2022-08-25T04:17:08;33.08;;;8.00;;
44987;SDS011;35735;52.226;21.254;2022-08-25T04:22:09;25.95;;;6.85;;
44987;SDS011;35735;52.226;21.254;2022-08-25T04:27:10;27.98;;;7.80;;
44987;SDS011;35735;52.226;21.254;2022-08-25T04:32:10;36.67;;;8.57;;
44987;SDS011;35735;52.226;21.254;2022-08-25T04:37:11;35.28;;;8.00;;
44987;SDS011;35735;52.226;21.254;2022-08-25T04:42:11;39.78;;;8.98;;
44987;SDS011;35735;52.226;21.254;2022-08-25T04:47:12;31.35;;;8.43;;
44987;SDS011;35735;52.226;21.254;2022-08-25T04:52:13;34.00;;;8.90;;
44987;SDS011;35735;52.226;21.254;2022-08-25T04:57:13;29.42;;;8.80;;
44987;SDS011;35735;52.226;21.254;2022-08-25T05:02:14;38.53;;;9.52;;
44987;SDS011;35735;52.226;21.254;2022-08-25T05:07:15;35.50;;;8.18;;
44987;SDS011;35735;52.226;21.254;2022-08-25T05:12:15;38.45;;;8.30;;
44987;SDS011;35735;52.226;21.254;2022-08-25T05:17:16;45.88;;;8.93;;
44987;SDS011;35735;52.226;21.254;2022-08-25T05:22:16;35.10;;;8.52;;
44987;SDS011;35735;52.226;21.254;2022-08-25T05:27:17;27.92;;;8.13;;
44987;SDS011;35735;52.226;21.254;2022-08-25T05:32:17;25.60;;;8.32;;
44987;SDS011;35735;52.226;21.254;2022-08-25T05:37:18;37.60;;;8.05;;
44987;SDS011;35735;52.226;21.254;2022-08-25T05:42:18;27.95;;;7.75;;
44987;SDS011;35735;52.226;21.254;2022-08-25T05:47:19;30.02;;;8.27;;
44987;SDS011;35735;52.226;21.254;2022-08-25T05:52:20;43.25;;;8.95;;
44987;SDS011;35735;52.226;21.254;2022-08-25T05:57:20;35.33;;;8.15;;
44987;SDS011;35735;52.226;21.254;2022-08-25T06:02:21;32.60;;;8.43;;
44987;SDS011;35735;52.226;21.254;2022-08-25T06:07:21;33.42;;;8.45;;
44987;SDS011;35735;52.226;21.254;2022-08-25T06:12:22;30.58;;;8.68;;
44987;SDS011;35735;52.226;21.254;2022-08-25T06:17:22;28.67;;;8.45;;
44987;SDS011;35735;52.226;21.254;2022-08-25T06:22:23;36.60;;;9.20;;
44987;SDS011;35735;52.226;21.254;2022-08-25T06:27:23;27.50;;;8.25;;
44987;SDS011;35735;52.226;21.254;2022-08-25T06:32:24;24.77;;;7.57;;
44987;SDS011;35735;52.226;21.254;2022-08-25T06:37:25;26.73;;;7.65;;
44987;SDS011;35735;52.226;21.254;2022-08-25T06:42:25;29.15;;;7.70;;
44987;SDS011;35735;52.226;21.254;2022-08-25T06:47:26;28.17;;;8.20;;
44987;SDS011;35735;52.226;21.254;2022-08-25T06:52:27;31.70;;;7.87;;
44987;SDS011;35735;52.226;21.254;2022-08-25T06:57:28;25.23;;;7.40;;
44987;SDS011;35735;52.226;21.254;2022-08-25T07:02:29;24.83;;;6.82;;
44987;SDS011;35735;52.226;21.254;2022-08-25T07:07:30;20.35;;;6.93;;
44987;SDS011;35735;52.226;21.254;2022-08-25T07:12:31;22.30;;;6.25;;
44987;SDS011;35735;52.226;21.254;2022-08-25T07:17:31;19.58;;;6.30;;
44987;SDS011;35735;52.226;21.254;2022-08-25T07:22:32;22.77;;;6.60;;
44987;SDS011;35735;52.226;21.254;2022-08-25T07:27:32;26.67;;;7.47;;
44987;SDS011;35735;52.226;21.254;2022-08-25T07:32:33;16.37;;;6.32;;
44987;SDS011;35735;52.226;21.254;2022-08-25T07:37:36;16.85;;;6.43;;
44987;SDS011;35735;52.226;21.254;2022-08-25T07:42:38;16.65;;;6.40;;
44987;SDS011;35735;52.226;21.254;2022-08-25T07:47:38;17.27;;;6.72;;
44987;SDS011;35735;52.226;21.254;2022-08-25T07:52:39;16.67;;;5.80;;
44987;SDS011;35735;52.226;21.254;2022-08-25T07:57:40;20.48;;;6.32;;
44987;SDS011;35735;52.226;21.254;2022-08-25T08:02:42;21.80;;;6.18;;
44987;SDS011;35735;52.226;21.254;2022-08-25T08:07:43;19.37;;;6.40;;
44987;SDS011;35735;52.226;21.254;2022-08-25T08:12:43;17.27;;;5.93;;
44987;SDS011;35735;52.226;21.254;2022-08-25T08:17:44;15.85;;;5.78;;
44987;SDS011;35735;52.226;21.254;2022-08-25T08:22:46;14.52;;;5.15;;
44987;SDS011;35735;52.226;21.254;2022-08-25T08:27:46;9.65;;;4.97;;
44987;SDS011;35735;52.226;21.254;2022-08-25T08:32:47;13.35;;;5.43;;
44987;SDS011;35735;52.226;21.254;2022-08-25T08:37:47;14.15;;;5.07;;
44987;SDS011;35735;52.226;21.254;2022-08-25T08:43:11;12.88;;;4.95;;
44987;SDS011;35735;52.226;21.254;2022-08-25T08:54:16;12.52;;;4.70;;
44987;SDS011;35735;52.226;21.254;2022-08-25T08:59:23;14.27;;;4.68;;
44987;SDS011;35735;52.226;21.254;2022-08-25T09:09:42;10.32;;;4.40;;
44987;SDS011;35735;52.226;21.254;2022-08-25T09:25:36;12.10;;;4.05;;
44987;SDS011;35735;52.226;21.254;2022-08-25T09:30:57;14.57;;;4.25;;
44987;SDS011;35735;52.226;21.254;2022-08-25T09:36:03;10.60;;;4.18;;
44987;SDS011;35735;52.226;21.254;2022-08-25T09:41:04;12.73;;;3.47;;
44987;SDS011;35735;52.226;21.254;2022-08-25T09:51:26;9.10;;;3.78;;
44987;SDS011;35735;52.226;21.254;2022-08-25T09:56:33;7.03;;;3.45;;
44987;SDS011;35735;52.226;21.254;2022-08-25T10:01:52;9.95;;;3.60;;
44987;SDS011;35735;52.226;21.254;2022-08-25T10:06:54;9.52;;;3.67;;
44987;SDS011;35735;52.226;21.254;2022-08-25T10:11:55;10.57;;;3.95;;
44987;SDS011;35735;52.226;21.254;2022-08-25T10:17:13;11.02;;;3.65;;
44987;SDS011;35735;52.226;21.254;2022-08-25T10:22:26;10.65;;;3.25;;
44987;SDS011;35735;52.226;21.254;2022-08-25T10:27:35;8.13;;;3.33;;
44987;SDS011;35735;52.226;21.254;2022-08-25T10:33:05;9.40;;;3.22;;
44987;SDS011;35735;52.226;21.254;2022-08-25T10:48:53;7.37;;;3.25;;
44987;SDS011;35735;52.226;21.254;2022-08-25T10:54:10;12.75;;;3.90;;
44987;SDS011;35735;52.226;21.254;2022-08-25T10:59:40;8.30;;;3.65;;
44987;SDS011;35735;52.226;21.254;2022-08-25T11:04:52;5.32;;;3.25;;
44987;SDS011;35735;52.226;21.254;2022-08-25T11:10:36;11.77;;;3.42;;
44987;SDS011;35735;52.226;21.254;2022-08-25T11:21:02;10.18;;;3.53;;
44987;SDS011;35735;52.226;21.254;2022-08-25T11:26:10;7.15;;;3.03;;
44987;SDS011;35735;52.226;21.254;2022-08-25T11:31:14;9.40;;;3.17;;
44987;SDS011;35735;52.226;21.254;2022-08-25T11:36:22;10.70;;;3.70;;
44987;SDS011;35735;52.226;21.254;2022-08-25T11:52:36;8.60;;;3.00;;
44987;SDS011;35735;52.226;21.254;2022-08-25T11:57:32;9.15;;;3.17;;
44987;SDS011;35735;52.226;21.254;2022-08-25T12:07:56;9.15;;;3.30;;
44987;SDS011;35735;52.226;21.254;2022-08-25T12:13:02;4.12;;;2.22;;
44987;SDS011;35735;52.226;21.254;2022-08-25T12:33:56;6.22;;;2.75;;
44987;SDS011;35735;52.226;21.254;2022-08-25T12:39:21;5.45;;;3.10;;
44987;SDS011;35735;52.226;21.254;2022-08-25T12:49:42;7.68;;;3.17;;
44987;SDS011;35735;52.226;21.254;2022-08-25T12:59:58;10.45;;;3.08;;
44987;SDS011;35735;52.226;21.254;2022-08-25T13:11:31;7.62;;;2.65;;
44987;SDS011;35735;52.226;21.254;2022-08-25T13:16:18;9.68;;;2.53;;
44987;SDS011;35735;52.226;21.254;2022-08-25T13:21:29;10.45;;;2.70;;
44987;SDS011;35735;52.226;21.254;2022-08-25T13:26:39;9.55;;;2.80;;
44987;SDS011;35735;52.226;21.254;2022-08-25T13:31:53;7.25;;;2.85;;
44987;SDS011;35735;52.226;21.254;2022-08-25T13:37:03;7.90;;;2.80;;
44987;SDS011;35735;52.226;21.254;2022-08-25T13:42:11;5.55;;;3.17;;
44987;SDS011;35735;52.226;21.254;2022-08-25T13:47:15;7.60;;;2.87;;
44987;SDS011;35735;52.226;21.254;2022-08-25T13:52:34;5.12;;;2.97;;
44987;SDS011;35735;52.226;21.254;2022-08-25T13:57:35;9.75;;;3.00;;
44987;SDS011;35735;52.226;21.254;2022-08-25T14:02:41;7.25;;;2.85;;
44987;SDS011;35735;52.226;21.254;2022-08-25T14:07:52;10.73;;;2.60;;
44987;SDS011;35735;52.226;21.254;2022-08-25T14:18:27;5.28;;;2.87;;
44987;SDS011;35735;52.226;21.254;2022-08-25T14:23:30;7.97;;;3.00;;
44987;SDS011;35735;52.226;21.254;2022-08-25T14:28:31;8.13;;;2.90;;
44987;SDS011;35735;52.226;21.254;2022-08-25T14:33:35;8.40;;;2.75;;
44987;SDS011;35735;52.226;21.254;2022-08-25T14:38:40;12.02;;;3.50;;
44987;SDS011;35735;52.226;21.254;2022-08-25T14:43:41;6.40;;;2.60;;
44987;SDS011;35735;52.226;21.254;2022-08-25T14:48:43;15.90;;;2.90;;
44987;SDS011;35735;52.226;21.254;2022-08-25T14:53:46;6.00;;;2.75;;
44987;SDS011;35735;52.226;21.254;2022-08-25T14:58:47;7.60;;;2.40;;
44987;SDS011;35735;52.226;21.254;2022-08-25T15:03:47;5.78;;;2.47;;
44987;SDS011;35735;52.226;21.254;2022-08-25T15:08:52;8.18;;;2.30;;
44987;SDS011;35735;52.226;21.254;2022-08-25T15:13:53;5.70;;;2.55;;
44987;SDS011;35735;52.226;21.254;2022-08-25T15:18:53;6.35;;;2.70;;
44987;SDS011;35735;52.226;21.254;2022-08-25T15:23:54;7.37;;;2.95;;
44987;SDS011;35735;52.226;21.254;2022-08-25T15:28:54;7.45;;;2.78;;
44987;SDS011;35735;52.226;21.254;2022-08-25T15:33:55;8.10;;;2.55;;
44987;SDS011;35735;52.226;21.254;2022-08-25T15:38:56;11.07;;;2.60;;
44987;SDS011;35735;52.226;21.254;2022-08-25T15:43:56;6.97;;;2.60;;
44987;SDS011;35735;52.226;21.254;2022-08-25T15:48:58;9.02;;;2.62;;
44987;SDS011;35735;52.226;21.254;2022-08-25T15:53:58;4.15;;;2.50;;
44987;SDS011;35735;52.226;21.254;2022-08-25T15:58:59;10.90;;;3.03;;
44987;SDS011;35735;52.226;21.254;2022-08-25T16:04:03;5.78;;;2.50;;
44987;SDS011;35735;52.226;21.254;2022-08-25T16:09:04;7.32;;;2.35;;
44987;SDS011;35735;52.226;21.254;2022-08-25T16:14:05;6.25;;;2.60;;
44987;SDS011;35735;52.226;21.254;2022-08-25T16:19:06;3.85;;;2.03;;
44987;SDS011;35735;52.226;21.254;2022-08-25T16:24:07;6.32;;;2.30;;
44987;SDS011;35735;52.226;21.254;2022-08-25T16:29:08;7.35;;;2.60;;
44987;SDS011;35735;52.226;21.254;2022-08-25T16:34:09;6.60;;;2.78;;
44987;SDS011;35735;52.226;21.254;2022-08-25T16:39:09;18.65;;;3.72;;
44987;SDS011;35735;52.226;21.254;2022-08-25T16:44:10;15.88;;;3.00;;
44987;SDS011;35735;52.226;21.254;2022-08-25T16:49:11;10.45;;;3.00;;
44987;SDS011;35735;52.226;21.254;2022-08-25T16:54:13;11.50;;;3.08;;
44987;SDS011;35735;52.226;21.254;2022-08-25T16:59:13;8.55;;;3.00;;
44987;SDS011;35735;52.226;21.254;2022-08-25T17:04:14;9.75;;;3.10;;
44987;SDS011;35735;52.226;21.254;2022-08-25T17:09:14;7.10;;;2.80;;
44987;SDS011;35735;52.226;21.254;2022-08-25T17:14:16;7.12;;;2.80;;
44987;SDS011;35735;52.226;21.254;2022-08-25T17:19:17;15.95;;;3.47;;
44987;SDS011;35735;52.226;21.254;2022-08-25T17:24:18;31.12;;;4.55;;
44987;SDS011;35735;52.226;21.254;2022-08-25T17:29:19;35.67;;;5.18;;
44987;SDS011;35735;52.226;21.254;2022-08-25T17:34:20;28.17;;;4.18;;
44987;SDS011;35735;52.226;21.254;2022-08-25T17:39:20;25.12;;;3.80;;
44987;SDS011;35735;52.226;21.254;2022-08-25T17:44:21;22.75;;;4.90;;
44987;SDS011;35735;52.226;21.254;2022-08-25T17:49:22;18.98;;;3.92;;
44987;SDS011;35735;52.226;21.254;2022-08-25T17:54:22;21.37;;;3.70;;
44987;SDS011;35735;52.226;21.254;2022-08-25T17:59:23;13.65;;;3.72;;
44987;SDS011;35735;52.226;21.254;2022-08-25T18:04:23;14.27;;;3.78;;
44987;SDS011;35735;52.226;21.254;2022-08-25T18:09:24;15.93;;;3.83;;
44987;SDS011;35735;52.226;21.254;2022-08-25T18:14:24;17.77;;;3.87;;
44987;SDS011;35735;52.226;21.254;2022-08-25T18:19:25;23.90;;;3.80;;
44987;SDS011;35735;52.226;21.254;2022-08-25T18:24:25;25.50;;;4.50;;
44987;SDS011;35735;52.226;21.254;2022-08-25T18:29:26;28.83;;;5.68;;
44987;SDS011;35735;52.226;21.254;2022-08-25T18:34:27;22.35;;;4.87;;
44987;SDS011;35735;52.226;21.254;2022-08-25T18:39:27;27.60;;;4.75;;
44987;SDS011;35735;52.226;21.254;2022-08-25T18:44:28;28.98;;;5.28;;
44987;SDS011;35735;52.226;21.254;2022-08-25T18:49:29;30.60;;;4.90;;
44987;SDS011;35735;52.226;21.254;2022-08-25T18:54:29;20.00;;;5.70;;
44987;SDS011;35735;52.226;21.254;2022-08-25T18:59:30;17.30;;;5.93;;
44987;SDS011;35735;52.226;21.254;2022-08-25T19:04:31;19.37;;;6.68;;
44987;SDS011;35735;52.226;21.254;2022-08-25T19:09:32;18.48;;;6.28;;
44987;SDS011;35735;52.226;21.254;2022-08-25T19:14:32;17.98;;;6.22;;
44987;SDS011;35735;52.226;21.254;2022-08-25T19:19:33;21.73;;;6.70;;
44987;SDS011;35735;52.226;21.254;2022-08-25T19:24:33;20.60;;;6.32;;
44987;SDS011;35735;52.226;21.254;2022-08-25T19:29:34;18.58;;;6.45;;
44987;SDS011;35735;52.226;21.254;2022-08-25T19:34:37;21.90;;;7.57;;
44987;SDS011;35735;52.226;21.254;2022-08-25T19:39:41;26.60;;;7.50;;
44987;SDS011;35735;52.226;21.254;2022-08-25T19:44:44;28.80;;;7.47;;
44987;SDS011;35735;52.226;21.254;2022-08-25T19:49:46;41.72;;;8.00;;
44987;SDS011;35735;52.226;21.254;2022-08-25T19:54:46;26.37;;;7.80;;
44987;SDS011;35735;52.226;21.254;2022-08-25T19:59:47;34.28;;;7.25;;
44987;SDS011;35735;52.226;21.254;2022-08-25T20:04:48;20.25;;;6.53;;
44987;SDS011;35735;52.226;21.254;2022-08-25T20:09:51;13.77;;;6.03;;
44987;SDS011;35735;52.226;21.254;2022-08-25T20:14:53;12.85;;;6.22;;
44987;SDS011;35735;52.226;21.254;2022-08-25T20:19:56;14.32;;;6.40;;
44987;SDS011;35735;52.226;21.254;2022-08-25T20:25:00;16.58;;;6.60;;
44987;SDS011;35735;52.226;21.254;2022-08-25T20:30:21;14.15;;;6.50;;
44987;SDS011;35735;52.226;21.254;2022-08-25T20:35:29;19.73;;;7.55;;
44987;SDS011;35735;52.226;21.254;2022-08-25T20:40:30;16.70;;;6.32;;
44987;SDS011;35735;52.226;21.254;2022-08-25T20:45:30;9.32;;;6.07;;
44987;SDS011;35735;52.226;21.254;2022-08-25T20:50:31;11.68;;;5.97;;
44987;SDS011;35735;52.226;21.254;2022-08-25T20:55:31;13.68;;;6.40;;
44987;SDS011;35735;52.226;21.254;2022-08-25T21:00:32;18.15;;;6.03;;
44987;SDS011;35735;52.226;21.254;2022-08-25T21:05:33;14.63;;;6.07;;
44987;SDS011;35735;52.226;21.254;2022-08-25T21:10:38;14.82;;;6.75;;
44987;SDS011;35735;52.226;21.254;2022-08-25T21:15:39;8.95;;;5.87;;
44987;SDS011;35735;52.226;21.254;2022-08-25T21:20:39;12.65;;;6.65;;
44987;SDS011;35735;52.226;21.254;2022-08-25T21:25:40;11.60;;;6.80;;
44987;SDS011;35735;52.226;21.254;2022-08-25T21:30:41;16.42;;;6.00;;
44987;SDS011;35735;52.226;21.254;2022-08-25T21:35:42;12.13;;;6.28;;
44987;SDS011;35735;52.226;21.254;2022-08-25T21:40:43;10.45;;;6.28;;
44987;SDS011;35735;52.226;21.254;2022-08-25T21:45:43;15.70;;;6.60;;
44987;SDS011;35735;52.226;21.254;2022-08-25T21:50:44;14.50;;;6.50;;
44987;SDS011;35735;52.226;21.254;2022-08-25T21:55:45;9.82;;;6.60;;
44987;SDS011;35735;52.226;21.254;2022-08-25T22:00:45;15.25;;;6.80;;
44987;SDS011;35735;52.226;21.254;2022-08-25T22:05:46;23.48;;;7.32;;
44987;SDS011;35735;52.226;21.254;2022-08-25T22:10:46;13.25;;;7.32;;
44987;SDS011;35735;52.226;21.254;2022-08-25T22:15:47;12.90;;;7.25;;
44987;SDS011;35735;52.226;21.254;2022-08-25T22:20:47;18.90;;;7.50;;
44987;SDS011;35735;52.226;21.254;2022-08-25T22:25:49;14.27;;;7.62;;
44987;SDS011;35735;52.226;21.254;2022-08-25T22:30:49;15.32;;;7.93;;
44987;SDS011;35735;52.226;21.254;2022-08-25T22:35:50;14.27;;;7.43;;
44987;SDS011;35735;52.226;21.254;2022-08-25T22:40:50;13.10;;;7.00;;
44987;SDS011;35735;52.226;21.254;2022-08-25T22:45:58;11.90;;;7.65;;
44987;SDS011;35735;52.226;21.254;2022-08-25T22:51:04;15.45;;;7.40;;
44987;SDS011;35735;52.226;21.254;2022-08-25T22:56:11;13.62;;;7.55;;
44987;SDS011;35735;52.226;21.254;2022-08-25T23:01:15;11.20;;;6.97;;
44987;SDS011;35735;52.226;21.254;2022-08-25T23:06:19;14.43;;;7.10;;
44987;SDS011;35735;52.226;21.254;2022-08-25T23:11:56;14.05;;;7.28;;
44987;SDS011;35735;52.226;21.254;2022-08-25T23:16:57;16.27;;;8.13;;
44987;SDS011;35735;52.226;21.254;2022-08-25T23:21:57;11.18;;;6.65;;
44987;SDS011;35735;52.226;21.254;2022-08-25T23:26:58;11.68;;;7.22;;
44987;SDS011;35735;52.226;21.254;2022-08-25T23:32:01;12.25;;;7.40;;
44987;SDS011;35735;52.226;21.254;2022-08-25T23:37:03;9.65;;;6.95;;
44987;SDS011;35735;52.226;21.254;2022-08-25T23:42:04;14.13;;;7.25;;
44987;SDS011;35735;52.226;21.254;2022-08-25T23:47:05;15.00;;;7.47;;
44987;SDS011;35735;52.226;21.254;2022-08-25T23:52:05;11.12;;;7.10;;
